sensor_id;sensor_type;location;lat;lon;timestamp;temperature;humidity
4908;DHT22;64375;51.540;7.364;2023-01-29T00:02:08;7.70;86.20
4908;DHT22;64375;51.540;7.364;2023-01-29T00:04:36;7.80;86.40
4908;DHT22;64375;51.540;7.364;2023-01-29T00:07:07;7.60;83.10
4908;DHT22;64375;51.540;7.364;2023-01-29T00:09:42;7.00;77.30
4908;DHT22;64375;51.540;7.364;2023-01-29T00:12:16;6.50;77.40
4908;DHT22;64375;51.540;7.364;2023-01-29T00:14:44;6.90;90.10
4908;DHT22;64375;51.540;7.364;2023-01-29T00:17:15;7.40;92.10
4908;DHT22;64375;51.540;7.364;2023-01-29T00:19:42;7.50;87.50
4908;DHT22;64375;51.540;7.364;2023-01-29T00:22:16;7.60;90.00
4908;DHT22;64375;51.540;7.364;2023-01-29T00:24:45;7.80;90.60
4908;DHT22;64375;51.540;7.364;2023-01-29T00:27:13;7.80;88.10
4908;DHT22;64375;51.540;7.364;2023-01-29T00:29:41;7.40;81.90
4908;DHT22;64375;51.540;7.364;2023-01-29T00:32:18;6.90;78.60
4908;DHT22;64375;51.540;7.364;2023-01-29T00:34:49;7.10;87.10
4908;DHT22;64375;51.540;7.364;2023-01-29T00:37:17;7.20;88.80
4908;DHT22;64375;51.540;7.364;2023-01-29T00:39:49;7.10;86.90
4908;DHT22;64375;51.540;7.364;2023-01-29T00:42:17;7.30;88.90
4908;DHT22;64375;51.540;7.364;2023-01-29T00:45:07;7.60;91.30
4908;DHT22;64375;51.540;7.364;2023-01-29T00:47:35;7.80;90.10
4908;DHT22;64375;51.540;7.364;2023-01-29T00:50:09;7.50;85.90
4908;DHT22;64375;51.540;7.364;2023-01-29T00:52:37;7.60;89.60
4908;DHT22;64375;51.540;7.364;2023-01-29T00:55:11;7.80;91.00
4908;DHT22;64375;51.540;7.364;2023-01-29T00:57:39;7.90;86.90
4908;DHT22;64375;51.540;7.364;2023-01-29T01:00:14;7.80;87.90
4908;DHT22;64375;51.540;7.364;2023-01-29T01:02:50;7.90;90.10
4908;DHT22;64375;51.540;7.364;2023-01-29T01:05:35;8.20;91.20
4908;DHT22;64375;51.540;7.364;2023-01-29T01:08:08;8.10;86.10
4908;DHT22;64375;51.540;7.364;2023-01-29T01:11:03;7.80;82.50
4908;DHT22;64375;51.540;7.364;2023-01-29T01:13:34;7.70;90.70
4908;DHT22;64375;51.540;7.364;2023-01-29T01:16:11;8.00;90.90
4908;DHT22;64375;51.540;7.364;2023-01-29T01:18:39;8.30;91.20
4908;DHT22;64375;51.540;7.364;2023-01-29T01:21:10;8.60;91.00
4908;DHT22;64375;51.540;7.364;2023-01-29T01:23:38;8.80;90.80
4908;DHT22;64375;51.540;7.364;2023-01-29T01:26:10;9.00;90.70
4908;DHT22;64375;51.540;7.364;2023-01-29T01:28:41;9.10;90.50
4908;DHT22;64375;51.540;7.364;2023-01-29T01:31:13;9.10;90.40
4908;DHT22;64375;51.540;7.364;2023-01-29T01:33:47;9.10;90.40
4908;DHT22;64375;51.540;7.364;2023-01-29T01:36:22;9.30;90.30
4908;DHT22;64375;51.540;7.364;2023-01-29T01:38:50;9.50;90.10
4908;DHT22;64375;51.540;7.364;2023-01-29T01:41:24;9.50;89.90
4908;DHT22;64375;51.540;7.364;2023-01-29T01:43:57;9.30;88.10
4908;DHT22;64375;51.540;7.364;2023-01-29T01:46:27;9.20;89.30
4908;DHT22;64375;51.540;7.364;2023-01-29T01:49:04;9.10;89.90
4908;DHT22;64375;51.540;7.364;2023-01-29T01:51:34;8.60;84.40
4908;DHT22;64375;51.540;7.364;2023-01-29T01:54:07;8.50;88.10
4908;DHT22;64375;51.540;7.364;2023-01-29T01:56:47;8.60;90.40
4908;DHT22;64375;51.540;7.364;2023-01-29T01:59:33;8.70;90.50
4908;DHT22;64375;51.540;7.364;2023-01-29T02:02:02;8.40;85.50
4908;DHT22;64375;51.540;7.364;2023-01-29T02:04:49;8.50;90.30
4908;DHT22;64375;51.540;7.364;2023-01-29T02:07:39;8.60;90.40
4908;DHT22;64375;51.540;7.364;2023-01-29T02:10:26;8.70;90.50
4908;DHT22;64375;51.540;7.364;2023-01-29T02:12:59;8.90;90.30
4908;DHT22;64375;51.540;7.364;2023-01-29T02:15:27;8.70;86.80
4908;DHT22;64375;51.540;7.364;2023-01-29T02:17:55;8.60;88.10
4908;DHT22;64375;51.540;7.364;2023-01-29T02:20:25;8.40;84.70
4908;DHT22;64375;51.540;7.364;2023-01-29T02:23:09;7.90;82.90
4908;DHT22;64375;51.540;7.364;2023-01-29T02:25:54;8.30;90.50
4908;DHT22;64375;51.540;7.364;2023-01-29T02:28:44;8.50;90.00
4908;DHT22;64375;51.540;7.364;2023-01-29T02:31:23;8.00;81.60
4908;DHT22;64375;51.540;7.364;2023-01-29T02:34:05;7.70;83.10
4908;DHT22;64375;51.540;7.364;2023-01-29T02:36:44;8.00;90.30
4908;DHT22;64375;51.540;7.364;2023-01-29T02:39:16;7.70;80.80
4908;DHT22;64375;51.540;7.364;2023-01-29T02:42:01;7.10;77.60
4908;DHT22;64375;51.540;7.364;2023-01-29T02:44:44;6.90;84.20
4908;DHT22;64375;51.540;7.364;2023-01-29T02:47:17;7.20;88.20
4908;DHT22;64375;51.540;7.364;2023-01-29T02:49:50;7.00;82.70
4908;DHT22;64375;51.540;7.364;2023-01-29T02:52:24;7.00;83.00
4908;DHT22;64375;51.540;7.364;2023-01-29T02:55:06;7.20;90.00
4908;DHT22;64375;51.540;7.364;2023-01-29T02:57:40;7.40;89.30
4908;DHT22;64375;51.540;7.364;2023-01-29T03:00:13;7.30;86.30
4908;DHT22;64375;51.540;7.364;2023-01-29T03:02:50;7.20;84.00
4908;DHT22;64375;51.540;7.364;2023-01-29T03:05:27;7.50;90.10
4908;DHT22;64375;51.540;7.364;2023-01-29T03:08:13;7.70;90.90
4908;DHT22;64375;51.540;7.364;2023-01-29T03:10:50;7.90;90.80
4908;DHT22;64375;51.540;7.364;2023-01-29T03:13:29;8.00;90.70
4908;DHT22;64375;51.540;7.364;2023-01-29T03:16:06;8.20;90.90
4908;DHT22;64375;51.540;7.364;2023-01-29T03:18:41;8.60;90.60
4908;DHT22;64375;51.540;7.364;2023-01-29T03:21:15;8.70;90.20
4908;DHT22;64375;51.540;7.364;2023-01-29T03:24:09;8.90;90.10
4908;DHT22;64375;51.540;7.364;2023-01-29T03:27:01;9.10;89.90
4908;DHT22;64375;51.540;7.364;2023-01-29T03:30:00;9.30;89.30
4908;DHT22;64375;51.540;7.364;2023-01-29T03:32:47;9.40;89.20
4908;DHT22;64375;51.540;7.364;2023-01-29T03:35:20;9.30;85.80
4908;DHT22;64375;51.540;7.364;2023-01-29T03:38:10;9.30;89.00
4908;DHT22;64375;51.540;7.364;2023-01-29T03:40:50;9.30;89.10
4908;DHT22;64375;51.540;7.364;2023-01-29T03:43:24;9.30;89.20
4908;DHT22;64375;51.540;7.364;2023-01-29T03:46:03;9.20;89.20
4908;DHT22;64375;51.540;7.364;2023-01-29T03:48:43;9.20;88.80
4908;DHT22;64375;51.540;7.364;2023-01-29T03:51:24;9.00;87.80
4908;DHT22;64375;51.540;7.364;2023-01-29T03:54:02;8.80;87.10
4908;DHT22;64375;51.540;7.364;2023-01-29T03:56:38;8.20;77.50
4908;DHT22;64375;51.540;7.364;2023-01-29T03:59:34;7.50;75.50
4908;DHT22;64375;51.540;7.364;2023-01-29T04:02:05;7.10;78.90
4908;DHT22;64375;51.540;7.364;2023-01-29T04:04:40;7.10;81.50
4908;DHT22;64375;51.540;7.364;2023-01-29T04:07:19;6.70;78.70
4908;DHT22;64375;51.540;7.364;2023-01-29T04:10:09;6.80;90.10
4908;DHT22;64375;51.540;7.364;2023-01-29T04:12:47;7.20;90.60
4908;DHT22;64375;51.540;7.364;2023-01-29T04:15:23;7.20;84.30
4908;DHT22;64375;51.540;7.364;2023-01-29T04:17:54;6.50;81.60
4908;DHT22;64375;51.540;7.364;2023-01-29T04:20:24;6.40;84.30
4908;DHT22;64375;51.540;7.364;2023-01-29T04:22:52;6.60;87.70
4908;DHT22;64375;51.540;7.364;2023-01-29T04:25:22;6.60;83.90
4908;DHT22;64375;51.540;7.364;2023-01-29T04:27:59;6.50;83.70
4908;DHT22;64375;51.540;7.364;2023-01-29T04:30:51;6.70;90.60
4908;DHT22;64375;51.540;7.364;2023-01-29T04:33:33;7.10;91.30
4908;DHT22;64375;51.540;7.364;2023-01-29T04:36:27;7.40;91.50
4908;DHT22;64375;51.540;7.364;2023-01-29T04:39:08;7.80;91.50
4908;DHT22;64375;51.540;7.364;2023-01-29T04:41:52;8.00;90.90
4908;DHT22;64375;51.540;7.364;2023-01-29T04:44:23;7.70;82.80
4908;DHT22;64375;51.540;7.364;2023-01-29T04:47:04;7.60;83.50
4908;DHT22;64375;51.540;7.364;2023-01-29T04:49:39;7.70;90.50
4908;DHT22;64375;51.540;7.364;2023-01-29T04:52:23;8.10;91.00
4908;DHT22;64375;51.540;7.364;2023-01-29T04:55:04;8.50;90.70
4908;DHT22;64375;51.540;7.364;2023-01-29T04:57:44;9.10;90.30
4908;DHT22;64375;51.540;7.364;2023-01-29T05:00:18;9.70;89.30
4908;DHT22;64375;51.540;7.364;2023-01-29T05:02:59;10.00;87.50
4908;DHT22;64375;51.540;7.364;2023-01-29T05:05:27;10.00;87.00
4908;DHT22;64375;51.540;7.364;2023-01-29T05:08:07;10.10;86.90
4908;DHT22;64375;51.540;7.364;2023-01-29T05:10:35;10.30;86.20
4908;DHT22;64375;51.540;7.364;2023-01-29T05:13:05;10.60;85.60
4908;DHT22;64375;51.540;7.364;2023-01-29T05:15:40;10.80;85.30
4908;DHT22;64375;51.540;7.364;2023-01-29T05:18:10;10.80;85.10
4908;DHT22;64375;51.540;7.364;2023-01-29T05:20:42;11.00;84.60
4908;DHT22;64375;51.540;7.364;2023-01-29T05:23:20;11.20;84.30
4908;DHT22;64375;51.540;7.364;2023-01-29T05:25:49;11.30;84.00
4908;DHT22;64375;51.540;7.364;2023-01-29T05:28:20;11.50;83.60
4908;DHT22;64375;51.540;7.364;2023-01-29T05:30:51;11.70;83.40
4908;DHT22;64375;51.540;7.364;2023-01-29T05:33:20;11.70;83.20
4908;DHT22;64375;51.540;7.364;2023-01-29T05:35:49;11.70;83.20
4908;DHT22;64375;51.540;7.364;2023-01-29T05:38:21;11.70;83.10
4908;DHT22;64375;51.540;7.364;2023-01-29T05:40:52;11.60;83.30
4908;DHT22;64375;51.540;7.364;2023-01-29T05:43:24;11.40;83.20
4908;DHT22;64375;51.540;7.364;2023-01-29T05:45:56;11.50;83.50
4908;DHT22;64375;51.540;7.364;2023-01-29T05:48:28;11.40;83.10
4908;DHT22;64375;51.540;7.364;2023-01-29T05:50:59;11.20;83.80
4908;DHT22;64375;51.540;7.364;2023-01-29T05:53:32;11.30;83.90
4908;DHT22;64375;51.540;7.364;2023-01-29T05:56:06;11.20;83.60
4908;DHT22;64375;51.540;7.364;2023-01-29T05:58:34;11.30;81.90
4908;DHT22;64375;51.540;7.364;2023-01-29T06:01:10;11.20;83.60
4908;DHT22;64375;51.540;7.364;2023-01-29T06:03:39;11.40;83.40
4908;DHT22;64375;51.540;7.364;2023-01-29T06:06:07;11.30;83.20
4908;DHT22;64375;51.540;7.364;2023-01-29T06:08:39;11.20;83.30
4908;DHT22;64375;51.540;7.364;2023-01-29T06:11:10;11.00;83.30
4908;DHT22;64375;51.540;7.364;2023-01-29T06:13:44;10.90;84.10
4908;DHT22;64375;51.540;7.364;2023-01-29T06:16:19;10.90;84.20
4908;DHT22;64375;51.540;7.364;2023-01-29T06:18:47;11.10;84.00
4908;DHT22;64375;51.540;7.364;2023-01-29T06:21:17;11.00;84.00
4908;DHT22;64375;51.540;7.364;2023-01-29T06:23:51;11.10;83.90
4908;DHT22;64375;51.540;7.364;2023-01-29T06:26:19;11.00;78.40
4908;DHT22;64375;51.540;7.364;2023-01-29T06:28:50;10.90;84.00
4908;DHT22;64375;51.540;7.364;2023-01-29T06:31:25;11.00;84.10
4908;DHT22;64375;51.540;7.364;2023-01-29T06:34:05;11.00;83.20
4908;DHT22;64375;51.540;7.364;2023-01-29T06:36:33;11.20;82.40
4908;DHT22;64375;51.540;7.364;2023-01-29T06:39:02;11.20;83.30
4908;DHT22;64375;51.540;7.364;2023-01-29T06:41:38;11.10;82.70
4908;DHT22;64375;51.540;7.364;2023-01-29T06:44:21;11.20;82.20
4908;DHT22;64375;51.540;7.364;2023-01-29T06:46:49;11.10;78.50
4908;DHT22;64375;51.540;7.364;2023-01-29T06:49:20;11.00;79.10
4908;DHT22;64375;51.540;7.364;2023-01-29T06:51:48;11.10;79.50
4908;DHT22;64375;51.540;7.364;2023-01-29T06:54:18;11.00;80.30
4908;DHT22;64375;51.540;7.364;2023-01-29T06:56:45;11.20;80.30
4908;DHT22;64375;51.540;7.364;2023-01-29T06:59:14;11.30;81.50
4908;DHT22;64375;51.540;7.364;2023-01-29T07:01:42;11.40;79.60
4908;DHT22;64375;51.540;7.364;2023-01-29T07:04:10;11.40;80.70
4908;DHT22;64375;51.540;7.364;2023-01-29T07:06:44;11.70;80.50
4908;DHT22;64375;51.540;7.364;2023-01-29T07:09:12;11.90;80.30
4908;DHT22;64375;51.540;7.364;2023-01-29T07:11:41;12.00;80.30
4908;DHT22;64375;51.540;7.364;2023-01-29T07:14:10;12.20;80.20
4908;DHT22;64375;51.540;7.364;2023-01-29T07:16:37;12.30;80.10
4908;DHT22;64375;51.540;7.364;2023-01-29T07:19:05;12.40;80.00
4908;DHT22;64375;51.540;7.364;2023-01-29T07:21:33;12.30;80.30
4908;DHT22;64375;51.540;7.364;2023-01-29T07:24:04;12.40;80.40
4908;DHT22;64375;51.540;7.364;2023-01-29T07:26:32;12.40;80.30
4908;DHT22;64375;51.540;7.364;2023-01-29T07:29:03;12.60;80.00
4908;DHT22;64375;51.540;7.364;2023-01-29T07:31:32;12.80;79.80
4908;DHT22;64375;51.540;7.364;2023-01-29T07:34:00;12.80;79.60
4908;DHT22;64375;51.540;7.364;2023-01-29T07:36:28;12.80;79.70
4908;DHT22;64375;51.540;7.364;2023-01-29T07:39:01;12.70;79.90
4908;DHT22;64375;51.540;7.364;2023-01-29T07:41:29;12.60;79.90
4908;DHT22;64375;51.540;7.364;2023-01-29T07:44:07;12.60;80.10
4908;DHT22;64375;51.540;7.364;2023-01-29T07:46:38;12.60;80.00
4908;DHT22;64375;51.540;7.364;2023-01-29T07:49:09;12.70;80.00
4908;DHT22;64375;51.540;7.364;2023-01-29T07:51:37;12.60;80.30
4908;DHT22;64375;51.540;7.364;2023-01-29T07:54:11;12.60;79.90
4908;DHT22;64375;51.540;7.364;2023-01-29T07:56:39;12.70;80.10
4908;DHT22;64375;51.540;7.364;2023-01-29T07:59:08;12.50;80.10
4908;DHT22;64375;51.540;7.364;2023-01-29T08:01:36;12.50;80.30
4908;DHT22;64375;51.540;7.364;2023-01-29T08:04:04;12.40;80.10
4908;DHT22;64375;51.540;7.364;2023-01-29T08:06:32;12.30;80.80
4908;DHT22;64375;51.540;7.364;2023-01-29T08:09:00;12.30;80.90
4908;DHT22;64375;51.540;7.364;2023-01-29T08:11:28;12.40;80.50
4908;DHT22;64375;51.540;7.364;2023-01-29T08:13:55;12.40;80.50
4908;DHT22;64375;51.540;7.364;2023-01-29T08:16:25;12.40;80.60
4908;DHT22;64375;51.540;7.364;2023-01-29T08:18:53;12.60;80.80
4908;DHT22;64375;51.540;7.364;2023-01-29T08:21:21;12.70;80.20
4908;DHT22;64375;51.540;7.364;2023-01-29T08:23:49;12.80;80.20
4908;DHT22;64375;51.540;7.364;2023-01-29T08:26:19;12.60;76.10
4908;DHT22;64375;51.540;7.364;2023-01-29T08:28:47;12.50;72.70
4908;DHT22;64375;51.540;7.364;2023-01-29T08:31:18;12.60;74.10
4908;DHT22;64375;51.540;7.364;2023-01-29T08:33:48;12.60;75.20
4908;DHT22;64375;51.540;7.364;2023-01-29T08:36:16;12.50;76.10
4908;DHT22;64375;51.540;7.364;2023-01-29T08:38:44;12.40;76.90
4908;DHT22;64375;51.540;7.364;2023-01-29T08:41:12;12.40;77.40
4908;DHT22;64375;51.540;7.364;2023-01-29T08:43:40;12.40;77.60
4908;DHT22;64375;51.540;7.364;2023-01-29T08:46:11;12.70;78.00
4908;DHT22;64375;51.540;7.364;2023-01-29T08:48:39;12.60;78.00
4908;DHT22;64375;51.540;7.364;2023-01-29T08:51:08;12.70;78.30
4908;DHT22;64375;51.540;7.364;2023-01-29T08:53:36;12.80;78.20
4908;DHT22;64375;51.540;7.364;2023-01-29T08:56:04;12.90;78.10
4908;DHT22;64375;51.540;7.364;2023-01-29T08:58:33;13.00;78.00
4908;DHT22;64375;51.540;7.364;2023-01-29T09:01:07;13.10;78.20
4908;DHT22;64375;51.540;7.364;2023-01-29T09:03:42;13.10;78.40
4908;DHT22;64375;51.540;7.364;2023-01-29T09:06:13;13.10;78.40
4908;DHT22;64375;51.540;7.364;2023-01-29T09:08:41;13.10;78.40
4908;DHT22;64375;51.540;7.364;2023-01-29T09:11:09;13.20;78.10
4908;DHT22;64375;51.540;7.364;2023-01-29T09:13:37;13.20;78.30
4908;DHT22;64375;51.540;7.364;2023-01-29T09:16:05;13.30;78.50
4908;DHT22;64375;51.540;7.364;2023-01-29T09:18:33;13.20;78.50
4908;DHT22;64375;51.540;7.364;2023-01-29T09:21:01;13.20;78.50
4908;DHT22;64375;51.540;7.364;2023-01-29T09:23:32;13.00;78.50
4908;DHT22;64375;51.540;7.364;2023-01-29T09:26:00;13.00;79.00
4908;DHT22;64375;51.540;7.364;2023-01-29T09:28:28;12.90;79.00
4908;DHT22;64375;51.540;7.364;2023-01-29T09:30:56;13.00;79.20
4908;DHT22;64375;51.540;7.364;2023-01-29T09:33:29;13.10;79.30
4908;DHT22;64375;51.540;7.364;2023-01-29T09:35:58;13.00;79.30
4908;DHT22;64375;51.540;7.364;2023-01-29T09:38:26;13.00;79.50
4908;DHT22;64375;51.540;7.364;2023-01-29T09:40:59;13.10;79.30
4908;DHT22;64375;51.540;7.364;2023-01-29T09:43:39;13.00;79.40
4908;DHT22;64375;51.540;7.364;2023-01-29T09:46:14;12.90;79.70
4908;DHT22;64375;51.540;7.364;2023-01-29T09:48:45;13.00;79.90
4908;DHT22;64375;51.540;7.364;2023-01-29T09:51:23;12.90;77.30
4908;DHT22;64375;51.540;7.364;2023-01-29T09:53:57;12.90;80.30
4908;DHT22;64375;51.540;7.364;2023-01-29T09:56:32;13.00;79.70
4908;DHT22;64375;51.540;7.364;2023-01-29T09:59:01;13.10;79.50
4908;DHT22;64375;51.540;7.364;2023-01-29T10:01:33;13.20;79.20
4908;DHT22;64375;51.540;7.364;2023-01-29T10:07:20;13.40;79.00
4908;DHT22;64375;51.540;7.364;2023-01-29T10:10:21;13.50;79.20
4908;DHT22;64375;51.540;7.364;2023-01-29T10:13:05;13.50;79.40
4908;DHT22;64375;51.540;7.364;2023-01-29T10:15:45;13.50;79.40
4908;DHT22;64375;51.540;7.364;2023-01-29T10:18:42;13.60;79.50
4908;DHT22;64375;51.540;7.364;2023-01-29T10:21:23;13.70;79.60
4908;DHT22;64375;51.540;7.364;2023-01-29T10:24:04;13.60;79.80
4908;DHT22;64375;51.540;7.364;2023-01-29T10:26:35;13.70;79.50
4908;DHT22;64375;51.540;7.364;2023-01-29T10:29:07;13.70;79.70
4908;DHT22;64375;51.540;7.364;2023-01-29T10:31:37;13.70;79.50
4908;DHT22;64375;51.540;7.364;2023-01-29T10:34:10;13.80;79.60
4908;DHT22;64375;51.540;7.364;2023-01-29T10:36:43;13.80;78.80
4908;DHT22;64375;51.540;7.364;2023-01-29T10:39:15;13.80;78.70
4908;DHT22;64375;51.540;7.364;2023-01-29T10:41:56;13.80;78.90
4908;DHT22;64375;51.540;7.364;2023-01-29T10:44:37;13.80;78.70
4908;DHT22;64375;51.540;7.364;2023-01-29T10:47:41;13.90;78.40
4908;DHT22;64375;51.540;7.364;2023-01-29T10:50:33;13.90;78.40
4908;DHT22;64375;51.540;7.364;2023-01-29T10:56:26;13.90;79.00
4908;DHT22;64375;51.540;7.364;2023-01-29T10:59:03;13.90;79.20
4908;DHT22;64375;51.540;7.364;2023-01-29T11:01:34;13.90;79.40
4908;DHT22;64375;51.540;7.364;2023-01-29T11:04:08;14.00;79.50
4908;DHT22;64375;51.540;7.364;2023-01-29T11:06:44;13.90;79.80
4908;DHT22;64375;51.540;7.364;2023-01-29T11:09:34;13.90;80.00
4908;DHT22;64375;51.540;7.364;2023-01-29T11:12:09;13.80;80.00
4908;DHT22;64375;51.540;7.364;2023-01-29T11:14:43;13.80;79.90
4908;DHT22;64375;51.540;7.364;2023-01-29T11:17:17;13.80;80.00
4908;DHT22;64375;51.540;7.364;2023-01-29T11:19:50;13.80;79.70
4908;DHT22;64375;51.540;7.364;2023-01-29T11:22:20;13.90;79.80
4908;DHT22;64375;51.540;7.364;2023-01-29T11:25:07;14.00;80.10
4908;DHT22;64375;51.540;7.364;2023-01-29T11:27:42;13.90;80.40
4908;DHT22;64375;51.540;7.364;2023-01-29T11:30:15;13.80;80.10
4908;DHT22;64375;51.540;7.364;2023-01-29T11:33:07;13.80;79.90
4908;DHT22;64375;51.540;7.364;2023-01-29T11:35:45;13.90;79.90
4908;DHT22;64375;51.540;7.364;2023-01-29T11:38:23;13.90;79.60
4908;DHT22;64375;51.540;7.364;2023-01-29T11:40:52;13.90;79.80
4908;DHT22;64375;51.540;7.364;2023-01-29T11:43:32;14.00;79.60
4908;DHT22;64375;51.540;7.364;2023-01-29T11:46:04;14.00;79.40
4908;DHT22;64375;51.540;7.364;2023-01-29T11:48:42;14.00;79.60
4908;DHT22;64375;51.540;7.364;2023-01-29T11:51:20;14.10;79.20
4908;DHT22;64375;51.540;7.364;2023-01-29T11:53:52;14.10;80.10
4908;DHT22;64375;51.540;7.364;2023-01-29T11:56:26;14.10;79.50
4908;DHT22;64375;51.540;7.364;2023-01-29T11:58:55;14.10;79.50
4908;DHT22;64375;51.540;7.364;2023-01-29T12:01:32;14.10;79.70
4908;DHT22;64375;51.540;7.364;2023-01-29T12:04:08;14.10;80.00
4908;DHT22;64375;51.540;7.364;2023-01-29T12:06:53;14.10;80.10
4908;DHT22;64375;51.540;7.364;2023-01-29T12:09:28;14.10;80.00
4908;DHT22;64375;51.540;7.364;2023-01-29T12:12:16;14.20;80.10
4908;DHT22;64375;51.540;7.364;2023-01-29T12:15:22;14.10;79.80
4908;DHT22;64375;51.540;7.364;2023-01-29T12:18:02;14.00;80.30
4908;DHT22;64375;51.540;7.364;2023-01-29T12:20:36;14.10;81.00
4908;DHT22;64375;51.540;7.364;2023-01-29T12:23:29;14.20;80.80
4908;DHT22;64375;51.540;7.364;2023-01-29T12:26:07;14.20;80.60
4908;DHT22;64375;51.540;7.364;2023-01-29T12:28:43;14.10;80.70
4908;DHT22;64375;51.540;7.364;2023-01-29T12:31:31;14.10;80.40
4908;DHT22;64375;51.540;7.364;2023-01-29T12:34:07;14.20;80.60
4908;DHT22;64375;51.540;7.364;2023-01-29T12:36:53;14.20;80.40
4908;DHT22;64375;51.540;7.364;2023-01-29T12:39:22;14.30;80.70
4908;DHT22;64375;51.540;7.364;2023-01-29T12:41:53;14.20;80.70
4908;DHT22;64375;51.540;7.364;2023-01-29T12:44:40;14.20;80.50
4908;DHT22;64375;51.540;7.364;2023-01-29T12:47:26;14.30;80.50
4908;DHT22;64375;51.540;7.364;2023-01-29T12:50:15;14.20;80.70
4908;DHT22;64375;51.540;7.364;2023-01-29T12:52:49;14.00;80.60
4908;DHT22;64375;51.540;7.364;2023-01-29T12:55:22;13.70;72.50
4908;DHT22;64375;51.540;7.364;2023-01-29T12:57:55;13.40;80.70
4908;DHT22;64375;51.540;7.364;2023-01-29T13:00:28;13.30;81.20
4908;DHT22;64375;51.540;7.364;2023-01-29T13:03:02;13.40;81.40
4908;DHT22;64375;51.540;7.364;2023-01-29T13:05:36;13.30;72.00
4908;DHT22;64375;51.540;7.364;2023-01-29T13:08:34;13.30;80.00
4908;DHT22;64375;51.540;7.364;2023-01-29T13:11:17;13.20;80.10
4908;DHT22;64375;51.540;7.364;2023-01-29T13:13:49;13.20;81.00
4908;DHT22;64375;51.540;7.364;2023-01-29T13:16:22;13.20;74.10
4908;DHT22;64375;51.540;7.364;2023-01-29T13:19:01;13.20;80.90
4908;DHT22;64375;51.540;7.364;2023-01-29T13:21:33;13.20;78.90
4908;DHT22;64375;51.540;7.364;2023-01-29T13:24:15;13.10;80.70
4908;DHT22;64375;51.540;7.364;2023-01-29T13:26:44;13.40;80.30
4908;DHT22;64375;51.540;7.364;2023-01-29T13:29:21;13.60;80.30
4908;DHT22;64375;51.540;7.364;2023-01-29T13:31:50;13.70;80.20
4908;DHT22;64375;51.540;7.364;2023-01-29T13:34:29;13.80;79.70
4908;DHT22;64375;51.540;7.364;2023-01-29T13:37:15;13.80;79.30
4908;DHT22;64375;51.540;7.364;2023-01-29T13:39:56;13.80;76.00
4908;DHT22;64375;51.540;7.364;2023-01-29T13:42:35;13.60;77.00
4908;DHT22;64375;51.540;7.364;2023-01-29T13:45:06;13.70;77.90
4908;DHT22;64375;51.540;7.364;2023-01-29T13:47:37;13.70;78.00
4908;DHT22;64375;51.540;7.364;2023-01-29T13:50:08;13.80;77.90
4908;DHT22;64375;51.540;7.364;2023-01-29T13:52:50;13.70;78.40
4908;DHT22;64375;51.540;7.364;2023-01-29T13:55:37;13.70;78.50
4908;DHT22;64375;51.540;7.364;2023-01-29T13:58:08;13.80;78.30
4908;DHT22;64375;51.540;7.364;2023-01-29T14:00:56;13.90;78.10
4908;DHT22;64375;51.540;7.364;2023-01-29T14:03:52;13.90;78.10
4908;DHT22;64375;51.540;7.364;2023-01-29T14:06:44;13.90;78.40
4908;DHT22;64375;51.540;7.364;2023-01-29T14:09:32;13.70;71.60
4908;DHT22;64375;51.540;7.364;2023-01-29T14:15:37;13.60;73.40
4908;DHT22;64375;51.540;7.364;2023-01-29T14:18:20;13.70;74.40
4908;DHT22;64375;51.540;7.364;2023-01-29T14:23:43;13.80;75.20
4908;DHT22;64375;51.540;7.364;2023-01-29T14:26:21;13.70;76.20
4908;DHT22;64375;51.540;7.364;2023-01-29T14:29:00;13.80;76.40
4908;DHT22;64375;51.540;7.364;2023-01-29T14:31:42;13.80;76.40
4908;DHT22;64375;51.540;7.364;2023-01-29T14:34:16;13.70;76.70
4908;DHT22;64375;51.540;7.364;2023-01-29T14:36:50;13.70;76.80
4908;DHT22;64375;51.540;7.364;2023-01-29T14:39:36;13.80;77.00
4908;DHT22;64375;51.540;7.364;2023-01-29T14:42:24;13.80;76.70
4908;DHT22;64375;51.540;7.364;2023-01-29T14:44:59;13.90;76.80
4908;DHT22;64375;51.540;7.364;2023-01-29T14:51:05;14.00;77.10
4908;DHT22;64375;51.540;7.364;2023-01-29T14:53:58;14.10;76.90
4908;DHT22;64375;51.540;7.364;2023-01-29T14:56:33;14.10;76.90
4908;DHT22;64375;51.540;7.364;2023-01-29T14:59:11;14.20;77.10
4908;DHT22;64375;51.540;7.364;2023-01-29T15:01:51;14.20;77.20
4908;DHT22;64375;51.540;7.364;2023-01-29T15:04:26;14.20;77.50
4908;DHT22;64375;51.540;7.364;2023-01-29T15:07:01;14.10;77.50
4908;DHT22;64375;51.540;7.364;2023-01-29T15:09:37;14.10;77.50
4908;DHT22;64375;51.540;7.364;2023-01-29T15:12:45;14.10;77.40
4908;DHT22;64375;51.540;7.364;2023-01-29T15:15:17;14.20;77.30
4908;DHT22;64375;51.540;7.364;2023-01-29T15:17:54;14.20;77.50
4908;DHT22;64375;51.540;7.364;2023-01-29T15:20:32;14.10;77.50
4908;DHT22;64375;51.540;7.364;2023-01-29T15:23:22;14.00;77.60
4908;DHT22;64375;51.540;7.364;2023-01-29T15:25:52;14.10;77.60
4908;DHT22;64375;51.540;7.364;2023-01-29T15:28:23;14.00;77.60
4908;DHT22;64375;51.540;7.364;2023-01-29T15:30:53;14.10;77.80
4908;DHT22;64375;51.540;7.364;2023-01-29T15:33:26;14.10;77.70
4908;DHT22;64375;51.540;7.364;2023-01-29T15:35:59;14.10;77.60
4908;DHT22;64375;51.540;7.364;2023-01-29T15:38:34;14.10;77.60
4908;DHT22;64375;51.540;7.364;2023-01-29T15:41:13;14.20;78.00
4908;DHT22;64375;51.540;7.364;2023-01-29T15:43:44;14.20;77.90
4908;DHT22;64375;51.540;7.364;2023-01-29T15:46:23;14.10;78.00
4908;DHT22;64375;51.540;7.364;2023-01-29T15:48:58;14.10;77.10
4908;DHT22;64375;51.540;7.364;2023-01-29T15:51:27;13.80;77.20
4908;DHT22;64375;51.540;7.364;2023-01-29T15:53:58;13.80;78.20
4908;DHT22;64375;51.540;7.364;2023-01-29T15:56:28;13.90;78.10
4908;DHT22;64375;51.540;7.364;2023-01-29T15:59:02;14.00;78.00
4908;DHT22;64375;51.540;7.364;2023-01-29T16:01:35;14.00;77.70
4908;DHT22;64375;51.540;7.364;2023-01-29T16:04:05;14.10;78.10
4908;DHT22;64375;51.540;7.364;2023-01-29T16:06:39;14.10;77.90
4908;DHT22;64375;51.540;7.364;2023-01-29T16:09:21;14.10;78.10
4908;DHT22;64375;51.540;7.364;2023-01-29T16:12:06;13.60;72.10
4908;DHT22;64375;51.540;7.364;2023-01-29T16:14:51;12.40;68.00
4908;DHT22;64375;51.540;7.364;2023-01-29T16:17:40;12.40;70.90
4908;DHT22;64375;51.540;7.364;2023-01-29T16:20:29;12.70;72.60
4908;DHT22;64375;51.540;7.364;2023-01-29T16:23:01;13.10;74.20
4908;DHT22;64375;51.540;7.364;2023-01-29T16:25:29;13.30;74.90
4908;DHT22;64375;51.540;7.364;2023-01-29T16:27:57;13.40;75.30
4908;DHT22;64375;51.540;7.364;2023-01-29T16:30:32;13.60;75.30
4908;DHT22;64375;51.540;7.364;2023-01-29T16:33:12;13.80;75.90
4908;DHT22;64375;51.540;7.364;2023-01-29T16:35:51;13.90;76.30
4908;DHT22;64375;51.540;7.364;2023-01-29T16:38:26;14.00;76.80
4908;DHT22;64375;51.540;7.364;2023-01-29T16:41:14;14.10;76.90
4908;DHT22;64375;51.540;7.364;2023-01-29T16:43:50;14.10;77.00
4908;DHT22;64375;51.540;7.364;2023-01-29T16:46:23;14.10;77.40
4908;DHT22;64375;51.540;7.364;2023-01-29T16:48:54;14.20;77.60
4908;DHT22;64375;51.540;7.364;2023-01-29T16:51:28;14.20;77.80
4908;DHT22;64375;51.540;7.364;2023-01-29T16:54:01;14.20;78.20
4908;DHT22;64375;51.540;7.364;2023-01-29T16:56:46;14.20;77.80
4908;DHT22;64375;51.540;7.364;2023-01-29T16:59:20;14.20;78.10